BOJ weather

Burgas Airport
Burgas, Burgas Province, Bulgaria

Public forecast

Using degrees Celsius for public forecast. Weather courtesy of forecast.io.

METAR (pilot weather report)

Retrieved 2019/05/19 08:30 UTC (2 minutes ago):

LBBG 190830Z 24007KT 190V260 CAVOK 25/19 Q1010 NOSIG

TAF (pilot weather forecast)

Retrieved 2019/05/19 06:18 UTC (2 hours ago):

TAF TAF LBBG 190500Z 1906/2006 VRB04KT CAVOK BECMG 1910/1912 12012KT PROB30 TEMPO 1912/1915 SHRA FEW035CB BKN045 BECMG 1918/1920 VRB04KT TEMPO 2002/2005 4000 BR SCT015